Aviation Digital Data Service (ADDS)

Output produced by METARs form (1008 UTC 20 September 2019)
found at http://aviationweather.gov/metar/data/
 
METAR text: EHGG 200955Z AUTO 27003KT 210V320 9999 BKN020 OVC026 14/09 Q1030 NOSIG
Conditions at: EHGG (GRONINGEN/EELDE , NL) observed 0955 UTC 20 September 2019
Temperature: 14.0°C (57°F)
Dewpoint: 9.0°C (48°F) [RH = 72%]
Pressure (altimeter): 30.41 inches Hg (1030.0 mb)
Winds: from the W (270 degrees) at 3 MPH (3 knots; 1.5 m/s)
Visibility: 6 or more miles (10+ km)
Ceiling: 2000 feet AGL
Clouds: broken clouds at 2000 feet AGL
overcast cloud deck at 2600 feet AGL
Weather: no significant weather observed at this time

METAR text: EHGG 200925Z AUTO 25003KT 180V310 9999 BKN022 OVC028 14/09 Q1030 NOSIG
Conditions at: EHGG (GRONINGEN/EELDE , NL) observed 0925 UTC 20 September 2019
Temperature: 14.0°C (57°F)
Dewpoint: 9.0°C (48°F) [RH = 72%]
Pressure (altimeter): 30.41 inches Hg (1030.0 mb)
Winds: from the WSW (250 degrees) at 3 MPH (3 knots; 1.5 m/s)
Visibility: 6 or more miles (10+ km)
Ceiling: 2200 feet AGL
Clouds: broken clouds at 2200 feet AGL
overcast cloud deck at 2800 feet AGL
Weather: no significant weather observed at this time

Forecast for: EHGG (GRONINGEN/EELDE , NL)
Text: TAF EHGG 200448Z 2006/2112 22004KT CAVOK
Forecast period: 0600 to 2100 UTC 20 September 2019
Forecast type: FROM: standard forecast or significant change
Winds: from the SW (220 degrees) at 5 MPH (4 knots; 2.1 m/s)
Visibility: 6 or more miles 10+ km)
Ceiling: unknown
Clouds: missing
Weather: NSW  (no significant weather)
Text: BECMG 2021/2024 4000 MIFG
Forecast period: 2100 UTC 20 September 2019 to 1200 UTC 21 September 2019
Forecast type: BECOMING: Conditions expected to become as follows by 0000 UTC 21 September 2019
Winds: from the SW (220 degrees) at 5 MPH (4 knots; 2.1 m/s)
Visibility: 2.49 miles (4.01 km)
Ceiling: unknown
Clouds: missing
Weather: MIFG  (shallow fog)
Text: PROB40 2100/2106 0500 FG
Forecast period: 0000 to 0600 UTC 21 September 2019
Forecast type: PROBABLE: 40 percent likelihood of the following during this time
Visibility: 0.31 miles (0.50 km)
Ceiling: unknown
Clouds: missing
Weather: FG  (fog)